地図

経路データ

SID SEASON NUMBER BASIN SUBBASIN NAME ISO_TIME NATURE LAT LON WMO_WIND WMO_PRES WMO_AGENCY TRACK_TYPE DIST2LAND LANDFALL IFLAG USA_AGENCY USA_ATCF_ID USA_LAT USA_LON USA_RECORD USA_STATUS USA_WIND USA_PRES USA_SSHS USA_R34_NE USA_R34_SE USA_R34_SW USA_R34_NW USA_R50_NE USA_R50_SE USA_R50_SW USA_R50_NW USA_R64_NE USA_R64_SE USA_R64_SW USA_R64_NW USA_POCI USA_ROCI USA_RMW USA_EYE TOKYO_LAT TOKYO_LON TOKYO_GRADE TOKYO_WIND TOKYO_PRES TOKYO_R50_DIR TOKYO_R50_LONG TOKYO_R50_SHORT TOKYO_R30_DIR TOKYO_R30_LONG TOKYO_R30_SHORT TOKYO_LAND CMA_LAT CMA_LON CMA_CAT CMA_WIND CMA_PRES HKO_LAT HKO_LON HKO_CAT HKO_WIND HKO_PRES NEWDELHI_LAT NEWDELHI_LON NEWDELHI_GRADE NEWDELHI_WIND NEWDELHI_PRES NEWDELHI_CI NEWDELHI_DP NEWDELHI_POCI REUNION_LAT REUNION_LON REUNION_TYPE REUNION_WIND REUNION_PRES REUNION_TNUM REUNION_CI REUNION_RMW REUNION_R34_NE REUNION_R34_SE REUNION_R34_SW REUNION_R34_NW REUNION_R50_NE REUNION_R50_SE REUNION_R50_SW REUNION_R50_NW REUNION_R64_NE REUNION_R64_SE REUNION_R64_SW REUNION_R64_NW BOM_LAT BOM_LON BOM_TYPE BOM_WIND BOM_PRES BOM_TNUM BOM_CI BOM_RMW BOM_R34_NE BOM_R34_SE BOM_R34_SW BOM_R34_NW BOM_R50_NE BOM_R50_SE BOM_R50_SW BOM_R50_NW BOM_R64_NE BOM_R64_SE BOM_R64_SW BOM_R64_NW BOM_ROCI BOM_POCI BOM_EYE BOM_POS_METHOD BOM_PRES_METHOD NADI_LAT NADI_LON NADI_CAT NADI_WIND NADI_PRES WELLINGTON_LAT WELLINGTON_LON WELLINGTON_WIND WELLINGTON_PRES DS824_LAT DS824_LON DS824_STAGE DS824_WIND DS824_PRES TD9636_LAT TD9636_LON TD9636_STAGE TD9636_WIND TD9636_PRES TD9635_LAT TD9635_LON TD9635_WIND TD9635_PRES TD9635_ROCI NEUMANN_LAT NEUMANN_LON NEUMANN_CLASS NEUMANN_WIND NEUMANN_PRES MLC_LAT MLC_LON MLC_CLASS MLC_WIND MLC_PRES USA_GUST BOM_GUST BOM_GUST_PER REUNION_GUST REUNION_GUST_PER USA_SEAHGT USA_SEARAD_NE USA_SEARAD_SE USA_SEARAD_SW USA_SEARAD_NW STORM_SPEED STORM_DIR
1980214N11330 1980 57 NA NA ALLEN 1980-07-31 12:00:00 NR 11.0000 -30.0000 25 hurdat_atl main 1417 1417 O_____________ hurdat_atl AL041980 11.0000 -30.0000 DB 25 -3 22 267
1980214N11330 1980 57 NA NA ALLEN 1980-07-31 15:00:00 NR 10.9509 -31.1101 main 1531 1531 P_____________ AL041980 10.9509 -31.1101 DB 25 -3 22 267
1980214N11330 1980 57 NA NA ALLEN 1980-07-31 18:00:00 NR 10.9000 -32.2000 25 hurdat_atl main 1650 1650 O_____________ hurdat_atl AL041980 10.9000 -32.2000 DB 25 -3 21 267
1980214N11330 1980 57 NA NA ALLEN 1980-07-31 21:00:00 NR 10.8496 -33.2574 main 1695 1655 P_____________ AL041980 10.8496 -33.2574 DB 27 -3 21 267
1980214N11330 1980 57 NA NA ALLEN 1980-08-01 00:00:00 TS 10.8000 -34.3000 30 1010 hurdat_atl main 1651 1603 O_____________ hurdat_atl AL041980 10.8000 -34.3000 TD 30 1010 -1 21 267
1980214N11330 1980 57 NA NA ALLEN 1980-08-01 03:00:00 TS 10.7421 -35.3426 main 1603 1572 P_____________ AL041980 10.7421 -35.3426 TD 30 1009 -1 21 267
1980214N11330 1980 57 NA NA ALLEN 1980-08-01 06:00:00 TS 10.7000 -36.4000 30 1009 hurdat_atl main 1569 1546 O_____________ hurdat_atl AL041980 10.7000 -36.4000 TD 30 1009 -1 21 269
1980214N11330 1980 57 NA NA ALLEN 1980-08-01 09:00:00 TS 10.6923 -37.4999 main 1545 1530 P_____________ AL041980 10.6923 -37.4999 TD 30 1008 -1 22 270
1980214N11330 1980 57 NA NA ALLEN 1980-08-01 12:00:00 TS 10.7000 -38.6000 30 1008 hurdat_atl main 1529 1476 O_____________ hurdat_atl AL041980 10.7000 -38.6000 TD 30 1008 -1 21 270
1980214N11330 1980 57 NA NA ALLEN 1980-08-01 15:00:00 TS 10.6771 -39.6577 main 1466 1380 P_____________ AL041980 10.6771 -39.6577 TD 30 1007 -1 21 270
1980214N11330 1980 57 NA NA ALLEN 1980-08-01 18:00:00 TS 10.7000 -40.7000 30 1006 hurdat_atl main 1371 1284 O_____________ hurdat_atl AL041980 10.7000 -40.7000 TD 30 1006 -1 21 274
1980214N11330 1980 57 NA NA ALLEN 1980-08-01 21:00:00 TS 10.8197 -41.7574 main 1275 1209 P_____________ AL041980 10.8197 -41.7574 TD 32 1005 -1 21 278
1980214N11330 1980 57 NA NA ALLEN 1980-08-02 00:00:00 TS 11.0000 -42.8000 35 1005 hurdat_atl main 1200 1139 O_____________ hurdat_atl AL041980 11.0000 -42.8000 TS 35 1005 0 20 280
1980214N11330 1980 57 NA NA ALLEN 1980-08-02 03:00:00 TS 11.1845 -43.8002 main 1131 1077 P_____________ AL041980 11.1845 -43.8002 TS 40 1002 0 20 282
1980214N11330 1980 57 NA NA ALLEN 1980-08-02 06:00:00 TS 11.4000 -44.8000 45 1000 hurdat_atl main 1070 1017 O_____________ hurdat_atl AL041980 11.4000 -44.8000 TS 45 1000 0 21 283
1980214N11330 1980 57 NA NA ALLEN 1980-08-02 09:00:00 TS 11.6496 -45.8350 main 1017 981 P_____________ AL041980 11.6496 -45.8350 TS 50 997 0 21 284
1980214N11330 1980 57 NA NA ALLEN 1980-08-02 12:00:00 TS 11.9000 -46.9000 55 995 hurdat_atl main 977 929 O_____________ hurdat_atl AL041980 11.9000 -46.9000 TS 55 995 0 22 283
1980214N11330 1980 57 NA NA ALLEN 1980-08-02 15:00:00 TS 12.1296 -47.9850 main 923 888 P_____________ AL041980 12.1296 -47.9850 TS 57 992 0 22 281
1980214N11330 1980 57 NA NA ALLEN 1980-08-02 18:00:00 TS 12.3000 -49.1000 60 990 hurdat_atl main 883 845 O_____________ hurdat_atl AL041980 12.3000 -49.1000 TS 60 990 0 22 276
1980214N11330 1980 57 NA NA ALLEN 1980-08-02 21:00:00 TS 12.3647 -50.2504 main 841 794 P_____________ AL041980 12.3647 -50.2504 TS 62 987 0 23 273
1980214N11330 1980 57 NA NA ALLEN 1980-08-03 00:00:00 TS 12.4000 -51.4000 65 985 hurdat_atl main 790 762 O_____________ hurdat_atl AL041980 12.4000 -51.4000 HU 65 985 1 22 273
1980214N11330 1980 57 NA NA ALLEN 1980-08-03 03:00:00 TS 12.4921 -52.5224 main 762 749 P_____________ AL041980 12.4921 -52.5224 HU 67 982 1 22 275
1980214N11330 1980 57 NA NA ALLEN 1980-08-03 06:00:00 TS 12.6000 -53.6000 70 980 hurdat_atl main 753 713 O_____________ hurdat_atl AL041980 12.6000 -53.6000 HU 70 980 1 21 276
1980214N11330 1980 57 NA NA ALLEN 1980-08-03 09:00:00 TS 12.7070 -54.6225 main 713 643 P_____________ AL041980 12.7070 -54.6225 HU 75 977 1 20 276
1980214N11330 1980 57 NA NA ALLEN 1980-08-03 12:00:00 TS 12.8000 -55.6000 80 975 hurdat_atl main 633 543 O_____________ hurdat_atl AL041980 12.8000 -55.6000 HU 80 975 1 19 274
1980214N11330 1980 57 NA NA ALLEN 1980-08-03 15:00:00 TS 12.8348 -56.5803 main 533 453 P_____________ AL041980 12.8348 -56.5803 HU 87 970 2 19 273
1980214N11330 1980 57 NA NA ALLEN 1980-08-03 18:00:00 TS 12.9000 -57.5000 95 965 hurdat_atl main 453 398 O_____________ hurdat_atl AL041980 12.9000 -57.5000 HU 95 965 2 17 278
1980214N11330 1980 57 NA NA ALLEN 1980-08-03 21:00:00 TS 13.0843 -58.2999 main 398 357 P_____________ AL041980 13.0843 -58.2999 HU 102 957 3 16 284
1980214N11330 1980 57 NA NA ALLEN 1980-08-04 00:00:00 TS 13.3000 -59.1000 110 950 hurdat_atl main 357 321 O_____________ hurdat_atl AL041980 13.3000 -59.1000 HU 110 950 3 17 282
1980214N11330 1980 57 NA CS ALLEN 1980-08-04 03:00:00 TS 13.4498 -60.0203 main 321 315 P_____________ AL041980 13.4498 -60.0203 HU 112 949 3 19 279
1980214N11330 1980 57 NA CS ALLEN 1980-08-04 06:00:00 TS 13.6000 -61.0000 115 948 hurdat_atl main 324 324 O_____________ hurdat_atl AL041980 13.6000 -61.0000 HU 115 948 4 20 280
1980214N11330 1980 57 NA CS ALLEN 1980-08-04 09:00:00 TS 13.7923 -62.0000 main 347 347 P_____________ AL041980 13.7923 -62.0000 HU 120 946 4 20 282
1980214N11330 1980 57 NA CS ALLEN 1980-08-04 12:00:00 TS 14.0000 -63.0000 125 945 hurdat_atl main 369 369 O_____________ hurdat_atl AL041980 14.0000 -63.0000 HU 125 945 4 20 282
1980214N11330 1980 57 NA CS ALLEN 1980-08-04 15:00:00 TS 14.1996 -63.9651 main 403 403 P_____________ AL041980 14.1996 -63.9651 HU 127 937 4 19 282
1980214N11330 1980 57 NA CS ALLEN 1980-08-04 18:00:00 TS 14.4000 -64.9000 130 930 hurdat_atl main 414 371 O_____________ hurdat_atl AL041980 14.4000 -64.9000 HU 130 930 4 18 282
1980214N11330 1980 57 NA CS ALLEN 1980-08-04 21:00:00 TS 14.5845 -65.8004 main 371 348 P_____________ AL041980 14.5845 -65.8004 HU 135 920 4 18 283
1980214N11330 1980 57 NA CS ALLEN 1980-08-05 00:00:00 TS 14.8000 -66.7000 140 911 hurdat_atl main 347 314 O_____________ hurdat_atl AL041980 14.8000 -66.7000 HU 140 911 5 19 286
1980214N11330 1980 57 NA CS ALLEN 1980-08-05 03:00:00 TS 15.0922 -67.6425 main 316 307 P_____________ AL041980 15.0922 -67.6425 HU 142 913 5 19 288
1980214N11330 1980 57 NA CS ALLEN 1980-08-05 06:00:00 TS 15.4000 -68.6000 145 916 hurdat_atl main 313 294 O_____________ hurdat_atl AL041980 15.4000 -68.6000 HU 145 916 5 19 287
1980214N11330 1980 57 NA CS ALLEN 1980-08-05 09:00:00 TS 15.6497 -69.5579 main 294 218 P_____________ AL041980 15.6497 -69.5579 HU 150 924 5 19 285
1980214N11330 1980 57 NA CS ALLEN 1980-08-05 12:00:00 TS 15.9000 -70.5000 155 932 hurdat_atl main 213 167 O_____________ hurdat_atl AL041980 15.9000 -70.5000 HU 155 932 5 19 285
1980214N11330 1980 57 NA CS ALLEN 1980-08-05 15:00:00 TS 16.1398 -71.4307 main 167 151 P_____________ AL041980 16.1398 -71.4307 HU 152 936 5 18 289
1980214N11330 1980 57 NA CS ALLEN 1980-08-05 18:00:00 TS 16.5000 -72.3000 150 940 hurdat_atl main 155 112 O_____________ hurdat_atl AL041980 16.5000 -72.3000 HU 150 940 5 18 304
1980214N11330 1980 57 NA CS ALLEN 1980-08-05 21:00:00 TS 17.1564 -73.0271 main 102 22 P_____________ AL041980 17.1564 -73.0271 HU 145 942 5 19 312
1980214N11330 1980 57 NA CS ALLEN 1980-08-06 00:00:00 TS 17.8000 -73.8000 140 945 hurdat_atl main 22 15 O_____________ hurdat_atl AL041980 17.8000 -73.8000 HU 140 945 5 19 299
1980214N11330 1980 57 NA CS ALLEN 1980-08-06 03:00:00 TS 18.0801 -74.8065 main 46 46 P_____________ AL041980 18.0801 -74.8065 HU 127 950 4 21 284
1980214N11330 1980 57 NA CS ALLEN 1980-08-06 06:00:00 TS 18.3000 -75.9000 115 955 hurdat_atl main 43 22 O_____________ hurdat_atl AL041980 18.3000 -75.9000 HU 115 955 4 21 288
1980214N11330 1980 57 NA CS ALLEN 1980-08-06 09:00:00 TS 18.7269 -76.9499 main 33 33 P_____________ AL041980 18.7269 -76.9499 HU 115 955 4 22 294
1980214N11330 1980 57 NA CS ALLEN 1980-08-06 12:00:00 TS 19.2000 -78.0000 115 955 hurdat_atl main 74 69 O_____________ hurdat_atl AL041980 19.2000 -78.0000 HU 115 955 4 22 295
1980214N11330 1980 57 NA CS ALLEN 1980-08-06 15:00:00 TS 19.6597 -79.0720 main 146 146 P_____________ AL041980 19.6597 -79.0720 HU 120 955 4 21 292
1980214N11330 1980 57 NA CS ALLEN 1980-08-06 18:00:00 TS 20.0000 -80.1000 125 955 hurdat_atl main 189 183 O_____________ hurdat_atl AL041980 20.0000 -80.1000 HU 125 955 4 19 283
1980214N11330 1980 57 NA CS ALLEN 1980-08-06 21:00:00 TS 20.0868 -81.0313 main 206 172 P_____________ AL041980 20.0868 -81.0313 HU 130 950 4 17 273
1980214N11330 1980 57 NA CS ALLEN 1980-08-07 00:00:00 TS 20.1000 -81.9000 135 945 hurdat_atl main 172 134 O_____________ hurdat_atl AL041980 20.1000 -81.9000 HU 135 945 4 17 274
1980214N11330 1980 57 NA CS ALLEN 1980-08-07 03:00:00 TS 20.2125 -82.7951 main 134 124 P_____________ AL041980 20.2125 -82.7951 HU 140 940 5 16 281
1980214N11330 1980 57 NA CS ALLEN 1980-08-07 06:00:00 TS 20.4000 -83.6000 145 935 hurdat_atl main 137 133 O_____________ hurdat_atl AL041980 20.4000 -83.6000 HU 145 935 5 14 289
1980214N11330 1980 57 NA CS ALLEN 1980-08-07 09:00:00 TS 20.6615 -84.2080 main 126 89 P_____________ AL041980 20.6615 -84.2080 HU 150 922 5 13 298
1980214N11330 1980 57 NA CS ALLEN 1980-08-07 12:00:00 TS 21.0000 -84.8000 155 910 hurdat_atl main 89 73 O_____________ hurdat_atl AL041980 21.0000 -84.8000 HU 155 910 5 15 301
1980214N11330 1980 57 NA CS ALLEN 1980-08-07 15:00:00 TS 21.4151 -85.5770 main 83 68 P_____________ AL041980 21.4151 -85.5770 HU 160 904 5 17 298
1980214N11330 1980 57 NA GM ALLEN 1980-08-07 18:00:00 TS 21.8000 -86.4000 165 899 hurdat_atl main 68 45 O_____________ hurdat_atl AL041980 21.8000 -86.4000 HU 165 899 5 16 292
1980214N11330 1980 57 NA GM ALLEN 1980-08-07 21:00:00 TS 22.0147 -87.1734 main 56 56 P_____________ AL041980 22.0147 -87.1734 HU 160 909 5 14 286
1980214N11330 1980 57 NA GM ALLEN 1980-08-08 00:00:00 TS 22.2000 -87.9000 155 920 hurdat_atl main 78 78 O_____________ hurdat_atl AL041980 22.2000 -87.9000 HU 155 920 5 14 290
1980214N11330 1980 57 NA GM ALLEN 1980-08-08 03:00:00 TS 22.4846 -88.5651 main 111 111 P_____________ AL041980 22.4846 -88.5651 HU 142 932 5 13 297
1980214N11330 1980 57 NA GM ALLEN 1980-08-08 06:00:00 TS 22.8000 -89.2000 130 945 hurdat_atl main 157 157 O_____________ hurdat_atl AL041980 22.8000 -89.2000 HU 130 945 4 13 298
1980214N11330 1980 57 NA GM ALLEN 1980-08-08 09:00:00 TS 23.1072 -89.8502 main 210 210 P_____________ AL041980 23.1072 -89.8502 HU 122 952 4 13 297
1980214N11330 1980 57 NA GM ALLEN 1980-08-08 12:00:00 TS 23.4000 -90.5000 115 960 hurdat_atl main 253 253 O_____________ hurdat_atl AL041980 23.4000 -90.5000 HU 115 960 4 13 294
1980214N11330 1980 57 NA GM ALLEN 1980-08-08 15:00:00 TS 23.6498 -91.1579 main 294 294 P_____________ AL041980 23.6498 -91.1579 HU 122 950 4 13 293
1980214N11330 1980 57 NA GM ALLEN 1980-08-08 18:00:00 TS 23.9000 -91.8000 130 940 hurdat_atl main 348 348 O_____________ hurdat_atl AL041980 23.9000 -91.8000 HU 130 940 4 13 296
1980214N11330 1980 57 NA GM ALLEN 1980-08-08 21:00:00 TS 24.1997 -92.4076 main 408 408 P_____________ AL041980 24.1997 -92.4076 HU 137 926 5 12 299
1980214N11330 1980 57 NA GM ALLEN 1980-08-09 00:00:00 TS 24.5000 -93.0000 145 912 hurdat_atl main 440 372 O_____________ hurdat_atl AL041980 24.5000 -93.0000 HU 145 912 5 12 298
1980214N11330 1980 57 NA GM ALLEN 1980-08-09 03:00:00 TS 24.7798 -93.6000 main 372 308 P_____________ AL041980 24.7798 -93.6000 HU 150 910 5 12 295
1980214N11330 1980 57 NA GM ALLEN 1980-08-09 06:00:00 TS 25.0000 -94.2000 155 909 hurdat_atl main 308 247 O_____________ hurdat_atl AL041980 25.0000 -94.2000 HU 155 909 5 12 287
1980214N11330 1980 57 NA GM ALLEN 1980-08-09 09:00:00 TS 25.1226 -94.8378 main 247 186 P_____________ AL041980 25.1226 -94.8378 HU 147 912 5 11 280
1980214N11330 1980 57 NA GM ALLEN 1980-08-09 12:00:00 TS 25.2000 -95.4000 140 916 hurdat_atl main 186 144 O_____________ hurdat_atl AL041980 25.2000 -95.4000 HU 140 916 5 9 281
1980214N11330 1980 57 NA GM ALLEN 1980-08-09 15:00:00 TS 25.2846 -95.7878 main 144 112 P_____________ AL041980 25.2846 -95.7878 HU 132 920 4 7 288
1980214N11330 1980 57 NA GM ALLEN 1980-08-09 18:00:00 TS 25.4000 -96.1000 125 925 hurdat_atl main 112 70 O_____________ hurdat_atl AL041980 25.4000 -96.1000 HU 125 925 4 7 296
1980214N11330 1980 57 NA GM ALLEN 1980-08-09 21:00:00 TS 25.5926 -96.4723 main 70 37 P_____________ AL041980 25.5926 -96.4723 HU 117 930 4 7 302
1980214N11330 1980 57 NA GM ALLEN 1980-08-10 00:00:00 TS 25.8000 -96.8000 110 935 hurdat_atl main 37 14 O_____________ hurdat_atl AL041980 25.8000 -96.8000 HU 110 935 3 6 307
1980214N11330 1980 57 NA GM ALLEN 1980-08-10 03:00:00 TS 25.9346 -96.9856 main 14 0 P_____________ AL041980 25.9346 -96.9856 HU 105 940 3 5 310
1980214N11330 1980 57 NA GM ALLEN 1980-08-10 06:00:00 TS 26.1000 -97.2000 100 945 hurdat_atl main 9 0 O_____________ hurdat_atl AL041980 26.1000 -97.2000 HU 100 945 3 7 308
1980214N11330 1980 57 NA NA ALLEN 1980-08-10 09:00:00 TS 26.3776 -97.6123 main 0 0 P_____________ AL041980 26.3776 -97.6123 HU 92 952 2 10 307
1980214N11330 1980 57 NA NA ALLEN 1980-08-10 12:00:00 TS 26.7000 -98.1000 85 960 hurdat_atl main 0 0 O_____________ hurdat_atl AL041980 26.7000 -98.1000 HU 85 960 2 11 307
1980214N11330 1980 57 NA NA ALLEN 1980-08-10 15:00:00 TS 27.0149 -98.5575 main 0 0 P_____________ AL041980 27.0149 -98.5575 HU 77 965 1 10 307
1980214N11330 1980 57 NA NA ALLEN 1980-08-10 18:00:00 TS 27.3000 -99.0000 70 970 hurdat_atl main 0 0 O_____________ hurdat_atl AL041980 27.3000 -99.0000 HU 70 970 1 9 305
1980214N11330 1980 57 NA NA ALLEN 1980-08-10 21:00:00 TS 27.5221 -99.3854 main 0 0 P_____________ AL041980 27.5221 -99.3854 HU 65 980 1 8 299
1980214N11330 1980 57 NA NA ALLEN 1980-08-11 00:00:00 TS 27.7000 -99.8000 60 990 hurdat_atl main 0 0 O_____________ hurdat_atl AL041980 27.7000 -99.8000 TS 60 990 0 9 291
1980214N11330 1980 57 NA NA ALLEN 1980-08-11 03:00:00 TS 27.8426 -100.335 main 0 0 P_____________ AL041980 27.8426 -100.335 TS 52 995 0 10 287
1980214N11330 1980 57 NA NA ALLEN 1980-08-11 06:00:00 TS 28.0000 -100.900 45 1000 hurdat_atl main 0 0 O_____________ hurdat_atl AL041980 28.0000 -100.900 TS 45 1000 0 10 293
1980214N11330 1980 57 NA NA ALLEN 1980-08-11 09:00:00 TS 28.2422 -101.407 main 0 0 P_____________ AL041980 28.2422 -101.407 TS 37 1002 0 10 300
1980214N11330 1980 57 NA NA ALLEN 1980-08-11 12:00:00 TS 28.5000 -101.900 30 1005 hurdat_atl main 0 0 O_____________ hurdat_atl AL041980 28.5000 -101.900 TD 30 1005 -1 10 299
1980214N11330 1980 57 NA NA ALLEN 1980-08-11 15:00:00 TS 28.7154 -102.397 main 0 0 P_____________ AL041980 28.7154 -102.397 TD 30 1006 -1 10 295
1980214N11330 1980 57 NA NA ALLEN 1980-08-11 18:00:00 TS 28.9000 -102.900 30 1008 hurdat_atl main 0 O_____________ hurdat_atl AL041980 28.9000 -102.900 TD 30 1008 -1 10 293

IBTrACS Databaseについて

本データベースは、米国NOAAが公開する1842年以降の世界の熱帯低気圧のベストトラックデータアーカイブInternational Best Track Archive for Climate Stewardship (IBTrACS)を、ウェブで閲覧しやすい形式に変換したものです。

最終更新日:2021-10-21